CheckWX is a tool to help pilots better visualize weather data.  It is not intended as a substitute for an official pre-flight weather briefing.

02:06:05 UTC

KLBX METAR
Texas Gulf Coast Regional Airport
Angleton/Lake Jackson, Texas, USA
Current

13 mins ago

KLBX 150153Z AUTO 15004KT 10SM SCT085 26/24 A2996 RMK AO2 SLP145 T02560239
Observed
Oct-15 @ 01:53 UTC
Wind
  • 150° at 4 KTS
Visibility
10 SM
Flight Rules
VFR
Cloud Levels
  • Scattered at 8,500' AGL
Temperature
26°C / 79°F
Dewpoint
24°C / 75°F
Humidity
89%
Altimeter
29.96" Hg
Pressure
1014.52 hPa
Previous

1 hour ago

KLBX 150053Z AUTO 14003KT 10SM FEW090 26/23 A2995 RMK AO2 SLP142 T02560233
Observed
Oct-15 @ 00:53 UTC
Wind
  • 140° at 3 KTS
Visibility
10 SM
Flight Rules
VFR
Cloud Levels
  • Few at 9,000' AGL
Temperature
26°C / 79°F
Dewpoint
23°C / 73°F
Humidity
84%
Altimeter
29.95" Hg
Pressure
1014.22 hPa
Previous

2 hours ago

KLBX 142353Z AUTO 15005KT 10SM FEW080 27/23 A2993 RMK AO2 RAE01 SLP136 P0000 60000 T02670233 10306 20261 53005
Observed
Oct-14 @ 23:53 UTC
Wind
  • 150° at 5 KTS
Visibility
10 SM
Flight Rules
VFR
Cloud Levels
  • Few at 8,000' AGL
Temperature
27°C / 81°F
Dewpoint
23°C / 73°F
Heat Index
30°C / 86°F
Humidity
79%
Altimeter
29.93" Hg
Pressure
1013.52 hPa
Current Rain
0.01"